Time;durP1;ratioP1;P1;durP2;ratioP2;P2;SDS_P1;SDS_P2;PMS_P1;PMS_P2;Temp;Humidity;BMP_temperature;BMP_pressure;BME280_temperature;BME280_humidity;BME280_pressure;Samples;Min_cycle;Max_cycle;Signal;HPM_P1;HPM_P2
2021/12/07 00:01:59;;;;;;;2.33;1.40;;;;;;;;;;4994038;28;20022;-77
2021/12/07 00:04:25;;;;;;;1.52;0.98;;;;;;;;;;4993870;28;20030;-77
2021/12/07 00:06:52;;;;;;;2.10;0.88;;;;;;;;;;4993846;28;20041;-78
2021/12/07 00:09:18;;;;;;;1.75;1.00;;;;;;;;;;4993895;28;20034;-79
2021/12/07 00:11:45;;;;;;;1.45;0.88;;;;;;;;;;4993879;28;20031;-80
2021/12/07 00:14:13;;;;;;;1.15;0.68;;;;;;;;;;4993574;28;20381;-80
2021/12/07 00:16:41;;;;;;;0.98;0.50;;;;;;;;;;5008843;28;20042;-78
2021/12/07 00:19:07;;;;;;;0.85;0.50;;;;;;;;;;4993730;28;20026;-81
2021/12/07 00:21:33;;;;;;;2.72;1.33;;;;;;;;;;4993623;28;20540;-80
2021/12/07 00:24:00;;;;;;;1.20;0.60;;;;;;;;;;4993684;28;20473;-79
2021/12/07 00:26:26;;;;;;;0.80;0.50;;;;;;;;;;5008762;28;20034;-81
2021/12/07 00:28:52;;;;;;;1.20;0.50;;;;;;;;;;4993531;28;20030;-77
2021/12/07 00:36:34;;;;;;;1.00;0.40;;;;;;;;;;4993560;28;20023;-76
2021/12/07 00:39:00;;;;;;;0.95;0.65;;;;;;;;;;4995208;28;20025;-78
2021/12/07 00:41:26;;;;;;;1.33;0.40;;;;;;;;;;5012032;28;20030;-80
2021/12/07 00:43:53;;;;;;;0.88;0.47;;;;;;;;;;5012207;28;20081;-81
2021/12/07 00:46:19;;;;;;;0.65;0.20;;;;;;;;;;5016620;28;20061;-80
2021/12/07 00:48:45;;;;;;;0.77;0.38;;;;;;;;;;5015594;28;20026;-78
2021/12/07 00:51:12;;;;;;;9.82;6.95;;;;;;;;;;5016686;28;20465;-76
2021/12/07 00:53:38;;;;;;;0.63;0.30;;;;;;;;;;5016835;28;20068;-79
2021/12/07 00:56:05;;;;;;;5.30;1.58;;;;;;;;;;5016448;28;20037;-79
2021/12/07 00:58:31;;;;;;;1.05;0.30;;;;;;;;;;5016725;28;20050;-78
2021/12/07 01:00:59;;;;;;;0.90;0.40;;;;;;;;;;5016606;28;20380;-79
2021/12/07 01:03:26;;;;;;;2.17;0.70;;;;;;;;;;5015192;28;20030;-78
2021/12/07 01:06:04;;;;;;;1.23;0.38;;;;;;;;;;5016356;28;20029;-79
2021/12/07 01:25:25;;;;;;;2.15;0.82;;;;;;;;;;5015997;28;20259;-80
2021/12/07 01:27:55;;;;;;;2.15;0.50;;;;;;;;;;5016097;28;20392;-79
2021/12/07 01:30:36;;;;;;;0.93;0.45;;;;;;;;;;5015892;28;20029;-79
2021/12/07 01:41:08;;;;;;;;;;;;;;;;;;5016022;28;20088;-79
2021/12/07 01:46:43;;;;;;;0.82;0.30;;;;;;;;;;5015616;28;20549;-78
2021/12/07 02:00:09;;;;;;;0.65;0.38;;;;;;;;;;5015447;28;20133;-79
2021/12/07 02:02:36;;;;;;;0.82;0.30;;;;;;;;;;5015385;28;20571;-77
2021/12/07 02:05:02;;;;;;;0.45;0.28;;;;;;;;;;5013926;28;20026;-77
2021/12/07 02:07:30;;;;;;;0.50;0.30;;;;;;;;;;5015415;28;20087;-77
2021/12/07 02:10:02;;;;;;;0.60;0.30;;;;;;;;;;5015201;28;20029;-78
2021/12/07 02:12:29;;;;;;;0.38;0.20;;;;;;;;;;5015142;28;20029;-77
2021/12/07 02:14:55;;;;;;;1.73;0.30;;;;;;;;;;5015035;28;20048;-78
2021/12/07 02:17:22;;;;;;;1.40;0.30;;;;;;;;;;5015235;28;20148;-78
2021/12/07 02:19:48;;;;;;;0.50;0.50;;;;;;;;;;5014841;28;20018;-78
2021/12/07 02:22:17;;;;;;;1.27;0.50;;;;;;;;;;5015072;28;20144;-81
2021/12/07 02:24:43;;;;;;;2.17;0.35;;;;;;;;;;5015020;28;20026;-80
2021/12/07 02:27:09;;;;;;;0.57;0.30;;;;;;;;;;4997195;28;20116;-79
2021/12/07 02:29:36;;;;;;;0.50;0.20;;;;;;;;;;5014753;28;20404;-79
2021/12/07 02:32:04;;;;;;;1.02;0.77;;;;;;;;;;5014653;28;20382;-79
2021/12/07 02:34:30;;;;;;;0.98;0.52;;;;;;;;;;5014859;28;20126;-80
2021/12/07 02:36:57;;;;;;;1.88;0.65;;;;;;;;;;5014572;28;20026;-79
2021/12/07 02:39:31;;;;;;;1.95;0.77;;;;;;;;;;5014527;28;20022;-78
2021/12/07 02:41:57;;;;;;;1.88;0.80;;;;;;;;;;5014624;28;20506;-78
2021/12/07 02:44:23;;;;;;;1.50;0.60;;;;;;;;;;5013036;28;20393;-78
2021/12/07 02:46:49;;;;;;;0.75;0.40;;;;;;;;;;5014501;28;20026;-77
2021/12/07 02:49:16;;;;;;;1.65;0.70;;;;;;;;;;5014434;28;20041;-79
2021/12/07 02:51:42;;;;;;;0.73;0.40;;;;;;;;;;5013154;28;20030;-77
2021/12/07 02:54:08;;;;;;;0.82;0.40;;;;;;;;;;5014307;28;20045;-77
2021/12/07 02:56:34;;;;;;;1.02;0.70;;;;;;;;;;5014404;28;20607;-77
2021/12/07 02:59:03;;;;;;;0.77;0.45;;;;;;;;;;5014209;28;20097;-77
2021/12/07 03:01:33;;;;;;;1.55;0.63;;;;;;;;;;5014356;28;20420;-78
2021/12/07 03:04:10;;;;;;;0.93;0.60;;;;;;;;;;5014102;28;20029;-77
2021/12/07 03:07:41;;;;;;;1.67;0.75;;;;;;;;;;5012870;28;20033;-78
2021/12/07 03:09:56;;;;;;;1.30;0.40;;;;;;;;;;5008493;28;20469;-76
2021/12/07 03:26:11;;;;;;;0.70;0.40;;;;;;;;;;5014029;28;20499;-78
2021/12/07 03:28:42;;;;;;;1.17;0.60;;;;;;;;;;5012628;28;20037;-78
2021/12/07 03:31:09;;;;;;;0.52;0.32;;;;;;;;;;5013733;28;20034;-75
2021/12/07 03:33:35;;;;;;;0.63;0.40;;;;;;;;;;5013923;28;20555;-79
2021/12/07 03:36:02;;;;;;;0.63;0.35;;;;;;;;;;5013663;28;20380;-78
2021/12/07 03:38:28;;;;;;;1.00;0.52;;;;;;;;;;5013699;28;20030;-77
2021/12/07 03:40:54;;;;;;;0.73;0.43;;;;;;;;;;5013673;28;20018;-77
2021/12/07 03:43:20;;;;;;;0.30;0.20;;;;;;;;;;5013331;28;20115;-77
2021/12/07 03:45:47;;;;;;;1.13;0.52;;;;;;;;;;5013734;28;20385;-78
2021/12/07 03:48:14;;;;;;;0.47;0.30;;;;;;;;;;5013664;28;20022;-75
2021/12/07 03:50:40;;;;;;;1.10;0.68;;;;;;;;;;5013754;28;20037;-76
2021/12/07 03:53:07;;;;;;;0.73;0.50;;;;;;;;;;5013390;28;20052;-78
2021/12/07 03:55:33;;;;;;;1.13;0.40;;;;;;;;;;5012648;28;20366;-81
2021/12/07 03:57:59;;;;;;;0.80;0.40;;;;;;;;;;5013456;28;20022;-78
2021/12/07 04:00:27;;;;;;;0.63;0.30;;;;;;;;;;5013488;28;20477;-78
2021/12/07 04:02:54;;;;;;;1.27;0.50;;;;;;;;;;5013494;28;20504;-79
2021/12/07 04:05:22;;;;;;;0.70;0.35;;;;;;;;;;5013480;28;20076;-77
2021/12/07 04:07:48;;;;;;;0.55;0.43;;;;;;;;;;5013369;28;20033;-78
2021/12/07 04:10:15;;;;;;;1.30;0.60;;;;;;;;;;5013382;28;20100;-78
2021/12/07 04:12:42;;;;;;;0.88;0.45;;;;;;;;;;5012003;28;20030;-76
2021/12/07 04:15:09;;;;;;;0.60;0.50;;;;;;;;;;5016988;28;20022;-78
2021/12/07 04:17:36;;;;;;;1.20;0.60;;;;;;;;;;5017390;28;20481;-78
2021/12/07 04:20:04;;;;;;;0.93;0.50;;;;;;;;;;5017141;28;20104;-75
2021/12/07 04:22:30;;;;;;;0.98;0.60;;;;;;;;;;5017432;28;20536;-75
2021/12/07 04:24:56;;;;;;;0.55;0.40;;;;;;;;;;5015903;28;20057;-77
2021/12/07 04:27:22;;;;;;;0.75;0.60;;;;;;;;;;5017209;28;20100;-78
2021/12/07 04:29:48;;;;;;;0.95;0.43;;;;;;;;;;5016861;28;20034;-78
2021/12/07 04:32:15;;;;;;;0.65;0.50;;;;;;;;;;5017033;28;20397;-77
2021/12/07 04:34:41;;;;;;;0.50;0.40;;;;;;;;;;5016775;28;20117;-75
2021/12/07 04:37:07;;;;;;;0.40;0.30;;;;;;;;;;5016876;28;20026;-76
2021/12/07 04:39:34;;;;;;;1.05;0.30;;;;;;;;;;5016852;28;20048;-77
2021/12/07 04:42:00;;;;;;;0.47;0.35;;;;;;;;;;5016646;28;20030;-78
2021/12/07 04:44:27;;;;;;;0.73;0.47;;;;;;;;;;5016658;28;20042;-76
2021/12/07 04:49:57;;;;;;;1.17;0.70;;;;;;;;;;5016768;28;20029;-80
2021/12/07 04:57:52;;;;;;;;;;;;;;;;;;5016658;28;20136;-76
2021/12/07 05:00:21;;;;;;;0.95;0.60;;;;;;;;;;5016597;28;20379;-78
2021/12/07 05:02:54;;;;;;;1.05;0.85;;;;;;;;;;4998685;28;20123;-75
2021/12/07 05:05:22;;;;;;;3.25;1.48;;;;;;;;;;5016250;28;20030;-77
2021/12/07 05:07:53;;;;;;;1.75;0.65;;;;;;;;;;5016386;28;20069;-78
2021/12/07 05:15:54;;;;;;;1.25;0.70;;;;;;;;;;5016255;28;20084;-78
2021/12/07 05:40:10;;;;;;;2.45;1.00;;;;;;;;;;5015934;28;20036;-78
2021/12/07 05:42:38;;;;;;;2.05;0.80;;;;;;;;;;5015520;28;20570;-76
2021/12/07 05:45:04;;;;;;;1.65;0.80;;;;;;;;;;5015719;28;20030;-76
2021/12/07 05:47:31;;;;;;;0.60;0.40;;;;;;;;;;5015612;28;20029;-79
2021/12/07 05:49:57;;;;;;;1.55;0.90;;;;;;;;;;5015640;28;20022;-79
2021/12/07 05:52:26;;;;;;;1.73;0.63;;;;;;;;;;5015578;28;20084;-76
2021/12/07 05:54:52;;;;;;;1.92;0.80;;;;;;;;;;5015180;28;20034;-82
2021/12/07 05:57:19;;;;;;;1.27;0.82;;;;;;;;;;5015373;28;20034;-77
2021/12/07 05:59:45;;;;;;;2.33;1.40;;;;;;;;;;5015257;28;20041;-74
2021/12/07 06:02:11;;;;;;;1.10;0.60;;;;;;;;;;5014083;28;20058;-80
2021/12/07 06:04:37;;;;;;;2.30;1.42;;;;;;;;;;5015225;28;20504;-77
2021/12/07 06:07:04;;;;;;;2.05;0.98;;;;;;;;;;5015242;28;20068;-77
2021/12/07 06:09:30;;;;;;;1.05;0.70;;;;;;;;;;5013892;28;20040;-78
2021/12/07 06:11:57;;;;;;;1.02;0.80;;;;;;;;;;5014986;28;20026;-75
2021/12/07 06:14:30;;;;;;;1.00;0.60;;;;;;;;;;5014739;28;20092;-78
2021/12/07 06:16:57;;;;;;;0.90;0.50;;;;;;;;;;5015022;28;20034;-76
2021/12/07 06:19:23;;;;;;;1.55;0.90;;;;;;;;;;5013747;28;20026;-79
2021/12/07 06:21:49;;;;;;;1.63;0.70;;;;;;;;;;5014947;28;20030;-80
2021/12/07 06:24:15;;;;;;;0.68;0.38;;;;;;;;;;5014976;28;20034;-76
2021/12/07 06:26:42;;;;;;;2.53;1.02;;;;;;;;;;5014772;28;20029;-79
2021/12/07 06:29:08;;;;;;;2.00;1.10;;;;;;;;;;5014523;28;20026;-77
2021/12/07 06:31:34;;;;;;;2.50;1.63;;;;;;;;;;5015081;28;20053;-77
2021/12/07 06:34:01;;;;;;;1.67;0.80;;;;;;;;;;5020761;28;20044;-76
2021/12/07 06:36:27;;;;;;;1.92;1.30;;;;;;;;;;5008445;28;20026;-78
2021/12/07 06:38:53;;;;;;;1.58;0.88;;;;;;;;;;5012849;28;20030;-77
2021/12/07 06:41:23;;;;;;;2.15;0.65;;;;;;;;;;5013641;28;20034;-78
2021/12/07 06:43:49;;;;;;;1.02;0.70;;;;;;;;;;5017570;28;20108;-75
2021/12/07 06:46:15;;;;;;;1.00;0.50;;;;;;;;;;5024057;28;20029;-78
2021/12/07 06:48:42;;;;;;;0.82;0.50;;;;;;;;;;5024211;28;20411;-79
2021/12/07 06:51:08;;;;;;;1.80;1.00;;;;;;;;;;5022382;28;20488;-81
2021/12/07 06:53:36;;;;;;;1.83;1.20;;;;;;;;;;5015471;28;20053;-77
2021/12/07 06:56:21;;;;;;;1.80;1.20;;;;;;;;;;5011588;28;20039;-78
2021/12/07 06:58:47;;;;;;;2.20;1.13;;;;;;;;;;5012005;28;20392;-81
2021/12/07 07:01:13;;;;;;;2.15;1.33;;;;;;;;;;5011881;28;20036;-79
2021/12/07 07:03:40;;;;;;;1.08;0.65;;;;;;;;;;5015650;28;20055;-77
2021/12/07 07:06:06;;;;;;;1.90;1.10;;;;;;;;;;5022206;28;20030;-79
2021/12/07 07:08:44;;;;;;;2.95;1.13;;;;;;;;;;5019989;28;20041;-77
2021/12/07 07:11:10;;;;;;;2.10;1.23;;;;;;;;;;5018641;28;20424;-79
2021/12/07 07:13:36;;;;;;;2.03;1.23;;;;;;;;;;5020214;28;20061;-78
2021/12/07 07:16:13;;;;;;;1.73;0.90;;;;;;;;;;5021573;28;20381;-81
2021/12/07 07:18:40;;;;;;;1.90;1.13;;;;;;;;;;5020825;28;20028;-78
2021/12/07 07:21:06;;;;;;;4.32;2.45;;;;;;;;;;5019032;28;20116;-78
2021/12/07 07:23:38;;;;;;;1.95;1.13;;;;;;;;;;5021622;28;20040;-78
2021/12/07 07:26:04;;;;;;;3.78;2.10;;;;;;;;;;5027197;28;20391;-76
2021/12/07 07:28:33;;;;;;;2.55;1.20;;;;;;;;;;5031072;28;20033;-78
2021/12/07 07:31:00;;;;;;;2.10;1.10;;;;;;;;;;5031627;28;20060;-80
2021/12/07 07:33:26;;;;;;;1.92;1.20;;;;;;;;;;5031027;28;20035;-76
2021/12/07 07:35:52;;;;;;;3.08;1.42;;;;;;;;;;5030794;28;20025;-76
2021/12/07 07:38:19;;;;;;;2.53;1.25;;;;;;;;;;5031309;28;20033;-80
2021/12/07 07:40:46;;;;;;;2.83;1.30;;;;;;;;;;5029724;28;20033;-78
2021/12/07 07:43:16;;;;;;;3.30;1.42;;;;;;;;;;5031211;28;20053;-77
2021/12/07 07:45:46;;;;;;;3.25;1.80;;;;;;;;;;5030920;28;20045;-78
2021/12/07 07:48:16;;;;;;;3.08;1.42;;;;;;;;;;5030266;28;20392;-78
2021/12/07 07:50:42;;;;;;;3.35;1.75;;;;;;;;;;5030368;28;20051;-79
2021/12/07 07:53:08;;;;;;;5.00;2.90;;;;;;;;;;5016228;28;20072;-77
2021/12/07 07:55:40;;;;;;;1.75;1.17;;;;;;;;;;5010933;28;20037;-74
2021/12/07 07:58:06;;;;;;;2.83;1.25;;;;;;;;;;5010929;28;20062;-78
2021/12/07 08:00:33;;;;;;;4.65;2.00;;;;;;;;;;5015883;28;20026;-79
2021/12/07 08:02:59;;;;;;;3.33;2.00;;;;;;;;;;5030968;28;20052;-78
2021/12/07 08:05:25;;;;;;;3.78;2.17;;;;;;;;;;5030699;28;20034;-76
2021/12/07 08:07:51;;;;;;;2.80;1.90;;;;;;;;;;5030951;28;20021;-74
2021/12/07 08:10:28;;;;;;;3.38;1.73;;;;;;;;;;5030631;28;20018;-78
2021/12/07 08:12:55;;;;;;;4.88;2.22;;;;;;;;;;5030592;28;20076;-77
2021/12/07 08:15:21;;;;;;;3.92;2.50;;;;;;;;;;5030945;28;20404;-78
2021/12/07 08:17:47;;;;;;;3.33;1.38;;;;;;;;;;5030718;28;20026;-72
2021/12/07 08:20:13;;;;;;;3.45;1.67;;;;;;;;;;5030839;28;20025;-80
2021/12/07 08:22:40;;;;;;;2.83;1.60;;;;;;;;;;5045630;28;20447;-77
2021/12/07 08:25:06;;;;;;;6.70;3.03;;;;;;;;;;5030338;28;20021;-78
2021/12/07 08:27:32;;;;;;;5.03;3.65;;;;;;;;;;5030839;28;20052;-78
2021/12/07 08:29:58;;;;;;;4.40;2.83;;;;;;;;;;5030381;28;20044;-76
2021/12/07 08:32:25;;;;;;;2.45;1.63;;;;;;;;;;5030682;28;20025;-76
2021/12/07 08:34:51;;;;;;;2.13;1.40;;;;;;;;;;5030556;28;20057;-77
2021/12/07 08:37:17;;;;;;;3.42;1.80;;;;;;;;;;5030358;28;20030;-75
2021/12/07 08:39:43;;;;;;;2.25;1.33;;;;;;;;;;5030415;28;20029;-75
2021/12/07 08:42:09;;;;;;;2.80;2.00;;;;;;;;;;5029756;28;20034;-76
2021/12/07 08:44:36;;;;;;;3.10;1.77;;;;;;;;;;5030711;28;20060;-78
2021/12/07 08:47:02;;;;;;;2.55;1.45;;;;;;;;;;5030416;28;20103;-76
2021/12/07 08:49:28;;;;;;;2.00;1.45;;;;;;;;;;5030628;28;20054;-75
2021/12/07 08:51:54;;;;;;;3.63;2.63;;;;;;;;;;5030098;28;20039;-74
2021/12/07 08:59:42;;;;;;;;;;;;;;;;;;5017893;28;20105;-79
2021/12/07 09:02:08;;;;;;;2.67;1.98;;;;;;;;;;5033812;28;19909;-78
2021/12/07 09:04:34;;;;;;;4.00;2.42;;;;;;;;;;5033856;28;20040;-78
2021/12/07 09:07:00;;;;;;;5.03;2.97;;;;;;;;;;5033766;28;20026;-77
2021/12/07 09:09:28;;;;;;;3.28;1.98;;;;;;;;;;5033668;28;20082;-85
2021/12/07 09:11:55;;;;;;;5.60;3.25;;;;;;;;;;5033339;28;20431;-74
2021/12/07 09:14:22;;;;;;;4.82;3.53;;;;;;;;;;5033404;28;20041;-82
2021/12/07 09:16:48;;;;;;;4.25;2.85;;;;;;;;;;5033552;28;20041;-76
2021/12/07 09:19:15;;;;;;;2.10;1.48;;;;;;;;;;5033470;28;20402;-76
2021/12/07 09:21:43;;;;;;;2.65;1.80;;;;;;;;;;5033804;28;20029;-77
2021/12/07 09:24:13;;;;;;;4.15;2.63;;;;;;;;;;5033269;28;20038;-75
2021/12/07 09:26:39;;;;;;;3.13;2.35;;;;;;;;;;5034093;28;20072;-78
2021/12/07 09:29:06;;;;;;;4.32;2.47;;;;;;;;;;5033559;28;20033;-76
2021/12/07 09:31:33;;;;;;;5.97;2.92;;;;;;;;;;5019347;28;20042;-78
2021/12/07 09:33:59;;;;;;;4.40;3.13;;;;;;;;;;5015564;28;20041;-76
2021/12/07 09:36:25;;;;;;;2.90;1.95;;;;;;;;;;5013068;28;20030;-79
2021/12/07 09:38:52;;;;;;;5.63;3.42;;;;;;;;;;5021871;28;20183;-82
2021/12/07 09:41:18;;;;;;;10.40;4.88;;;;;;;;;;5046210;28;20026;-80
2021/12/07 09:43:45;;;;;;;5.50;4.60;;;;;;;;;;5008690;28;20066;-76
2021/12/07 09:46:12;;;;;;;6.00;3.20;;;;;;;;;;4993502;28;20038;-79
2021/12/07 09:48:39;;;;;;;6.75;4.15;;;;;;;;;;4993835;28;20034;-83
2021/12/07 09:51:06;;;;;;;5.93;3.42;;;;;;;;;;4993237;28;20148;-76
2021/12/07 09:53:32;;;;;;;4.47;2.83;;;;;;;;;;5002463;28;20580;-82
2021/12/07 09:56:00;;;;;;;4.35;3.15;;;;;;;;;;5005387;28;20061;-76
2021/12/07 09:58:26;;;;;;;2.83;2.20;;;;;;;;;;4993498;28;20427;-77
2021/12/07 10:00:52;;;;;;;4.38;3.17;;;;;;;;;;4993695;28;20034;-78
2021/12/07 10:03:21;;;;;;;3.67;2.42;;;;;;;;;;4993387;28;20794;-77
2021/12/07 10:05:47;;;;;;;6.18;3.97;;;;;;;;;;4993642;28;20033;-76
2021/12/07 10:08:14;;;;;;;4.45;2.78;;;;;;;;;;4993147;28;20034;-80
2021/12/07 10:10:45;;;;;;;5.65;3.83;;;;;;;;;;5008080;28;20034;-78
2021/12/07 10:13:12;;;;;;;5.28;3.63;;;;;;;;;;4992434;28;20030;-77
2021/12/07 10:15:39;;;;;;;3.58;2.85;;;;;;;;;;4993419;28;20461;-78
2021/12/07 10:18:09;;;;;;;8.18;5.53;;;;;;;;;;5008227;28;20026;-80
2021/12/07 10:20:41;;;;;;;4.15;2.85;;;;;;;;;;4993234;28;20044;-80
2021/12/07 10:23:16;;;;;;;4.15;2.40;;;;;;;;;;4992927;28;20026;-76
2021/12/07 10:25:47;;;;;;;6.28;4.07;;;;;;;;;;4993169;28;20045;-77
2021/12/07 10:28:25;;;;;;;4.60;2.80;;;;;;;;;;5007973;28;20034;-78
2021/12/07 10:30:52;;;;;;;6.00;4.90;;;;;;;;;;5007503;28;20026;-80
2021/12/07 10:33:28;;;;;;;5.20;2.55;;;;;;;;;;4992547;28;20039;-81
2021/12/07 10:36:05;;;;;;;4.20;3.30;;;;;;;;;;4993151;28;20436;-80
2021/12/07 10:38:31;;;;;;;4.22;2.55;;;;;;;;;;5007732;28;20034;-78
2021/12/07 10:41:09;;;;;;;4.78;3.03;;;;;;;;;;4992821;28;20439;-79
2021/12/07 10:43:41;;;;;;;3.15;2.05;;;;;;;;;;5005314;28;20062;-78
2021/12/07 10:46:25;;;;;;;4.43;3.45;;;;;;;;;;5012416;28;20026;-83
2021/12/07 10:51:55;;;;;;;3.75;2.88;;;;;;;;;;5020507;28;20044;-77
2021/12/07 10:54:22;;;;;;;3.42;2.17;;;;;;;;;;5025137;28;20045;-79
2021/12/07 10:56:49;;;;;;;5.28;4.18;;;;;;;;;;5023261;28;20095;-79
2021/12/07 10:59:15;;;;;;;3.67;2.70;;;;;;;;;;5019177;28;20137;-80
2021/12/07 11:01:43;;;;;;;4.75;3.22;;;;;;;;;;5022104;28;20029;-79
2021/12/07 11:04:19;;;;;;;4.35;2.97;;;;;;;;;;5019870;28;20034;-77
2021/12/07 11:07:04;;;;;;;5.55;3.92;;;;;;;;;;5017879;28;20065;-77
2021/12/07 11:09:30;;;;;;;5.13;3.20;;;;;;;;;;5017927;28;20034;-82
2021/12/07 11:12:06;;;;;;;3.75;2.38;;;;;;;;;;5020535;28;20477;-78
2021/12/07 11:14:40;;;;;;;2.83;1.70;;;;;;;;;;5019367;28;20041;-76
2021/12/07 11:17:07;;;;;;;3.05;2.20;;;;;;;;;;5011362;28;20029;-75
2021/12/07 11:19:35;;;;;;;2.28;1.48;;;;;;;;;;5017818;28;20100;-76
2021/12/07 11:22:01;;;;;;;3.65;2.03;;;;;;;;;;5037161;28;20021;-78
2021/12/07 11:24:40;;;;;;;4.30;2.47;;;;;;;;;;5015779;28;20068;-79
2021/12/07 11:30:05;;;;;;;6.43;4.53;;;;;;;;;;5021978;28;20092;-79
2021/12/07 11:32:34;;;;;;;4.70;2.90;;;;;;;;;;5001992;28;20034;-76
2021/12/07 11:35:08;;;;;;;3.25;1.73;;;;;;;;;;5013787;28;20092;-77
2021/12/07 11:37:41;;;;;;;4.57;3.50;;;;;;;;;;5011417;28;20038;-80
2021/12/07 11:40:09;;;;;;;4.68;3.20;;;;;;;;;;5011312;28;20049;-78
2021/12/07 11:42:38;;;;;;;5.93;4.32;;;;;;;;;;5011491;28;20485;-75
2021/12/07 11:45:04;;;;;;;4.50;3.33;;;;;;;;;;5011400;28;20473;-79
2021/12/07 11:47:32;;;;;;;3.38;2.75;;;;;;;;;;5019979;28;20033;-76
2021/12/07 11:50:12;;;;;;;3.58;2.33;;;;;;;;;;5013895;28;20049;-77
2021/12/07 11:52:38;;;;;;;4.40;3.13;;;;;;;;;;5025996;28;20040;-79
2021/12/07 11:55:06;;;;;;;6.78;4.82;;;;;;;;;;5015234;28;20062;-75
2021/12/07 11:57:32;;;;;;;3.33;2.33;;;;;;;;;;5018209;28;20071;-85
2021/12/07 11:59:58;;;;;;;4.20;2.95;;;;;;;;;;5026885;28;20033;-77
2021/12/07 12:02:24;;;;;;;5.95;3.63;;;;;;;;;;5014547;28;20061;-77
2021/12/07 12:04:51;;;;;;;5.28;4.43;;;;;;;;;;5020361;28;20029;-75
2021/12/07 12:07:19;;;;;;;5.38;3.05;;;;;;;;;;5015490;28;20026;-76
2021/12/07 12:09:49;;;;;;;4.85;3.47;;;;;;;;;;5016300;28;20071;-79
2021/12/07 12:12:34;;;;;;;5.20;3.30;;;;;;;;;;5023055;28;20029;-81
2021/12/07 12:15:03;;;;;;;5.47;3.65;;;;;;;;;;5026107;28;20080;-79
2021/12/07 12:17:32;;;;;;;6.18;4.50;;;;;;;;;;5018053;28;20073;-77
2021/12/07 12:20:18;;;;;;;3.78;2.50;;;;;;;;;;5024662;28;20038;-78
2021/12/07 12:23:03;;;;;;;4.68;3.00;;;;;;;;;;5015608;28;20475;-77
2021/12/07 12:25:30;;;;;;;4.00;3.30;;;;;;;;;;5022727;28;20021;-79
2021/12/07 12:27:57;;;;;;;3.10;2.30;;;;;;;;;;5007741;28;20037;-78
2021/12/07 12:30:28;;;;;;;2.90;2.20;;;;;;;;;;5011354;28;20110;-78
2021/12/07 12:33:05;;;;;;;3.20;2.28;;;;;;;;;;5009964;28;20038;-79
2021/12/07 12:35:37;;;;;;;2.53;2.03;;;;;;;;;;5017784;28;20076;-78
2021/12/07 12:38:22;;;;;;;3.85;2.08;;;;;;;;;;5011827;28;20034;-80
2021/12/07 12:40:59;;;;;;;3.90;2.70;;;;;;;;;;5014430;28;20045;-76
2021/12/07 12:43:44;;;;;;;5.20;3.45;;;;;;;;;;5015901;28;20053;-76
2021/12/07 12:46:11;;;;;;;4.55;2.90;;;;;;;;;;5016765;28;20026;-76
2021/12/07 12:48:37;;;;;;;7.88;4.05;;;;;;;;;;5015218;28;20029;-79
2021/12/07 12:51:04;;;;;;;7.60;5.38;;;;;;;;;;5017388;28;20507;-78
2021/12/07 12:53:34;;;;;;;4.43;3.85;;;;;;;;;;5014503;28;20121;-79
2021/12/07 12:56:02;;;;;;;7.22;4.75;;;;;;;;;;4995913;28;20034;-79
2021/12/07 12:58:29;;;;;;;5.13;3.80;;;;;;;;;;5015251;28;20431;-78
2021/12/07 13:01:14;;;;;;;9.75;5.63;;;;;;;;;;5008819;28;20543;-78
2021/12/07 13:03:40;;;;;;;5.93;3.80;;;;;;;;;;5007811;28;20076;-78
2021/12/07 13:06:06;;;;;;;6.70;3.45;;;;;;;;;;5014169;28;20061;-79
2021/12/07 13:08:32;;;;;;;8.05;4.07;;;;;;;;;;5014173;28;20101;-78
2021/12/07 13:10:59;;;;;;;7.72;4.97;;;;;;;;;;5015652;28;20025;-78
2021/12/07 13:13:33;;;;;;;4.57;3.78;;;;;;;;;;5012366;28;20026;-80
2021/12/07 13:16:00;;;;;;;4.28;3.15;;;;;;;;;;5011566;28;20026;-79
2021/12/07 13:18:32;;;;;;;4.88;3.58;;;;;;;;;;5034129;28;20026;-77
2021/12/07 13:20:58;;;;;;;5.88;4.88;;;;;;;;;;5019926;28;20105;-80
2021/12/07 13:23:29;;;;;;;5.80;4.30;;;;;;;;;;5015244;28;20446;-78
2021/12/07 13:26:09;;;;;;;6.50;5.70;;;;;;;;;;5015084;28;20037;-80
2021/12/07 13:28:36;;;;;;;6.00;3.92;;;;;;;;;;5019157;28;20040;-77
2021/12/07 13:31:04;;;;;;;5.60;3.80;;;;;;;;;;5012191;28;20120;-83
2021/12/07 13:33:34;;;;;;;7.47;5.32;;;;;;;;;;5013730;28;20436;-77
2021/12/07 13:36:01;;;;;;;3.83;3.28;;;;;;;;;;5012824;28;20507;-79
2021/12/07 13:38:31;;;;;;;7.32;4.70;;;;;;;;;;5035303;28;20021;-78
2021/12/07 13:41:16;;;;;;;7.97;4.82;;;;;;;;;;5016087;28;20545;-83
2021/12/07 13:43:42;;;;;;;;;;;;;;;;;;5017057;28;20057;-77
2021/12/07 13:46:09;;;;;;;7.70;5.22;;;;;;;;;;5017679;28;20332;-79
2021/12/07 13:48:36;;;;;;;3.97;3.58;;;;;;;;;;5014338;28;20041;-77
2021/12/07 13:51:03;;;;;;;3.22;2.78;;;;;;;;;;5014083;28;20030;-82
2021/12/07 13:53:29;;;;;;;3.90;3.10;;;;;;;;;;5020386;28;20036;-76
2021/12/07 13:55:55;;;;;;;3.53;2.65;;;;;;;;;;5014079;28;20034;-79
2021/12/07 13:58:21;;;;;;;5.95;4.38;;;;;;;;;;5013832;28;20030;-78
2021/12/07 14:00:47;;;;;;;6.60;5.28;;;;;;;;;;5028905;28;20101;-80
2021/12/07 14:03:15;;;;;;;5.78;4.22;;;;;;;;;;5014021;28;20056;-77
2021/12/07 14:05:43;;;;;;;6.20;4.03;;;;;;;;;;5014183;28;20084;-78
2021/12/07 14:08:11;;;;;;;4.53;3.20;;;;;;;;;;5013766;28;20116;-79
2021/12/07 14:13:59;;;;;;;5.28;2.97;;;;;;;;;;5019417;28;20575;-78
2021/12/07 14:16:26;;;;;;;7.93;6.03;;;;;;;;;;5021211;28;20375;-80
2021/12/07 14:18:53;;;;;;;4.65;3.22;;;;;;;;;;5023314;28;20468;-77
2021/12/07 14:21:20;;;;;;;5.00;3.65;;;;;;;;;;5013611;28;20033;-78
2021/12/07 14:23:52;;;;;;;5.95;4.00;;;;;;;;;;5012392;28;20025;-80
2021/12/07 14:26:23;;;;;;;7.75;5.10;;;;;;;;;;5025600;28;20033;-78
2021/12/07 14:28:49;;;;;;;9.27;5.75;;;;;;;;;;5021832;28;20025;-79
2021/12/07 14:31:18;;;;;;;7.60;5.18;;;;;;;;;;5015870;28;20056;-78
2021/12/07 14:33:44;;;;;;;6.90;4.55;;;;;;;;;;5014794;28;20503;-80
2021/12/07 14:36:12;;;;;;;5.68;3.75;;;;;;;;;;5019689;28;20079;-78
2021/12/07 14:38:38;;;;;;;5.38;4.03;;;;;;;;;;5014474;28;20034;-81
2021/12/07 14:41:07;;;;;;;6.45;4.70;;;;;;;;;;5014347;28;20028;-78
2021/12/07 14:43:33;;;;;;;4.28;3.60;;;;;;;;;;5011572;28;20129;-77
2021/12/07 14:46:00;;;;;;;4.75;4.10;;;;;;;;;;5022208;28;20385;-81
2021/12/07 14:48:26;;;;;;;5.35;3.50;;;;;;;;;;5026440;28;20036;-80
2021/12/07 14:50:52;;;;;;;5.25;4.47;;;;;;;;;;5024364;28;20400;-80
2021/12/07 14:53:31;;;;;;;4.35;2.97;;;;;;;;;;5028696;28;20037;-82
2021/12/07 14:55:57;;;;;;;4.70;3.30;;;;;;;;;;5032784;28;20388;-77
2021/12/07 14:58:33;;;;;;;4.30;3.55;;;;;;;;;;5024672;28;20706;-81
2021/12/07 15:01:03;;;;;;;4.13;2.97;;;;;;;;;;5018949;28;20164;-79
2021/12/07 15:03:48;;;;;;;5.57;3.92;;;;;;;;;;5017206;28;20111;-81
2021/12/07 15:06:15;;;;;;;5.43;4.32;;;;;;;;;;5016041;28;20021;-77
2021/12/07 15:08:42;;;;;;;4.80;3.58;;;;;;;;;;5030429;28;20035;-86
2021/12/07 15:11:09;;;;;;;5.05;3.80;;;;;;;;;;5019619;28;20026;-79
2021/12/07 15:13:35;;;;;;;4.97;3.65;;;;;;;;;;5013220;28;20464;-78
2021/12/07 15:16:03;;;;;;;5.88;4.00;;;;;;;;;;5016271;28;20569;-80
2021/12/07 15:18:33;;;;;;;4.20;3.35;;;;;;;;;;5020674;28;20049;-80
2021/12/07 15:20:59;;;;;;;5.10;4.60;;;;;;;;;;5014126;28;20472;-79
2021/12/07 15:23:27;;;;;;;4.47;3.10;;;;;;;;;;5008682;28;20431;-77
2021/12/07 15:25:55;;;;;;;3.47;3.15;;;;;;;;;;5014279;28;20072;-78
2021/12/07 15:28:21;;;;;;;5.70;4.03;;;;;;;;;;5015410;28;20030;-78
2021/12/07 15:30:52;;;;;;;6.65;4.65;;;;;;;;;;5015066;28;20034;-78
2021/12/07 15:33:18;;;;;;;3.72;2.95;;;;;;;;;;5018529;28;20104;-76
2021/12/07 15:35:45;;;;;;;5.47;4.35;;;;;;;;;;5030853;28;20069;-79
2021/12/07 15:38:16;;;;;;;4.05;3.38;;;;;;;;;;5026919;28;20037;-77
2021/12/07 15:40:44;;;;;;;4.88;2.60;;;;;;;;;;4999540;28;20029;-79
2021/12/07 15:43:11;;;;;;;4.72;3.75;;;;;;;;;;5017134;28;20057;-80
2021/12/07 15:45:38;;;;;;;3.58;2.83;;;;;;;;;;5025165;28;20040;-77
2021/12/07 15:48:04;;;;;;;7.55;5.45;;;;;;;;;;5024558;28;20037;-80
2021/12/07 15:50:32;;;;;;;3.92;3.05;;;;;;;;;;5032664;28;20038;-78
2021/12/07 15:53:03;;;;;;;3.47;2.97;;;;;;;;;;5026832;28;20464;-81
2021/12/07 15:55:34;;;;;;;4.82;2.85;;;;;;;;;;5020750;28;20041;-78
2021/12/07 15:58:06;;;;;;;4.50;3.80;;;;;;;;;;5017406;28;20521;-81
2021/12/07 16:00:32;;;;;;;3.08;2.55;;;;;;;;;;5018239;28;20499;-81
2021/12/07 16:02:59;;;;;;;3.13;2.80;;;;;;;;;;5012925;28;20029;-78
2021/12/07 16:05:26;;;;;;;4.63;3.03;;;;;;;;;;5006135;28;20069;-80
2021/12/07 16:07:53;;;;;;;4.78;3.33;;;;;;;;;;5008951;28;20037;-79
2021/12/07 16:10:23;;;;;;;3.50;2.78;;;;;;;;;;4994756;28;20508;-82
2021/12/07 16:13:08;;;;;;;4.68;3.45;;;;;;;;;;5001759;28;20473;-78
2021/12/07 16:15:34;;;;;;;5.57;4.97;;;;;;;;;;5000686;28;20073;-78
2021/12/07 16:18:01;;;;;;;4.85;3.47;;;;;;;;;;5015567;28;20403;-84
2021/12/07 16:20:27;;;;;;;4.10;2.95;;;;;;;;;;5027059;28;20025;-81
2021/12/07 16:22:53;;;;;;;4.90;3.85;;;;;;;;;;5021140;28;20456;-77
2021/12/07 16:25:20;;;;;;;4.18;3.75;;;;;;;;;;5025304;28;20022;-79
2021/12/07 16:27:46;;;;;;;4.65;4.07;;;;;;;;;;5028688;28;20032;-80
2021/12/07 16:30:13;;;;;;;4.68;3.45;;;;;;;;;;5030949;28;20017;-78
2021/12/07 16:32:40;;;;;;;3.92;2.78;;;;;;;;;;5031867;28;20087;-80
2021/12/07 16:35:08;;;;;;;4.45;3.28;;;;;;;;;;5016129;28;20033;-83
2021/12/07 16:37:34;;;;;;;5.15;3.83;;;;;;;;;;5015072;28;20034;-77
2021/12/07 16:40:00;;;;;;;4.82;3.38;;;;;;;;;;5019542;28;20033;-82